Stone Ridge, Virginia
Current Conditions -  °F | °C
As of 3:36 PM on Thursday 29 Jan 2015 (Local Time) from KIAD Reporting Station
Ice Pellets Ice Pellets  
Wind Chill: 29°   Ceiling: 6500
Heat Index: 36°   Visibility: 10mi
Dew Point: 12°   Wind: 8mph
Humidity: 38%   Direction: 160°SSE
Pressure: 30.09"   Gusts: NA
Location:  38.959°N, 77.5988°W
Report Text: KIAD 292036Z 16007KT 10SM -PL BKN065 OVC080 02/M11 A3009 RMK AO2 RAB02E23PLB23 P0000
Loading
Personal Weather Stations






























Interactive Weather Map New forecast layout! Learn more

10-Day Weather Forecast

Advertisements
Track Severe Weather on mobile